Time;durP1;ratioP1;P1;durP2;ratioP2;P2;SDS_P1;SDS_P2;PMS_P1;PMS_P2;Temp;Humidity;BMP_temperature;BMP_pressure;BME280_temperature;BME280_humidity;BME280_pressure;Samples;Min_cycle;Max_cycle;Signal;HPM_P1;HPM_P2
2023/04/30 00:01:41;;;;;;;0.63;0.63;;;;;;;;;;5060971;28;20167;-80
2023/04/30 00:04:07;;;;;;;0.47;0.47;;;;;;;;;;5060402;28;20581;-80
2023/04/30 00:06:33;;;;;;;0.60;0.60;;;;;;;;;;5060104;28;20175;-81
2023/04/30 00:08:59;;;;;;;0.60;0.60;;;;;;;;;;5060883;28;20257;-81
2023/04/30 00:11:25;;;;;;;0.50;0.50;;;;;;;;;;5060987;28;20178;-81
2023/04/30 00:13:51;;;;;;;0.50;0.50;;;;;;;;;;5060045;28;20223;-80
2023/04/30 00:16:17;;;;;;;0.53;0.53;;;;;;;;;;5060057;28;20652;-81
2023/04/30 00:18:43;;;;;;;0.40;0.40;;;;;;;;;;5060821;28;20247;-81
2023/04/30 00:21:09;;;;;;;0.60;0.60;;;;;;;;;;5061205;28;20262;-81
2023/04/30 00:23:35;;;;;;;0.50;0.50;;;;;;;;;;5060340;28;20195;-80
2023/04/30 00:26:01;;;;;;;0.50;0.50;;;;;;;;;;5060987;28;20214;-80
2023/04/30 00:28:27;;;;;;;0.40;0.40;;;;;;;;;;5061578;28;20952;-80
2023/04/30 00:30:53;;;;;;;0.60;0.60;;;;;;;;;;5061388;28;20214;-81
2023/04/30 00:33:19;;;;;;;0.60;0.60;;;;;;;;;;5060708;28;20370;-80
2023/04/30 00:35:46;;;;;;;0.43;0.43;;;;;;;;;;5061429;28;20185;-80
2023/04/30 00:38:12;;;;;;;0.50;0.50;;;;;;;;;;5061232;28;20209;-81
2023/04/30 00:40:40;;;;;;;0.60;0.60;;;;;;;;;;5061874;28;20841;-81
2023/04/30 00:43:06;;;;;;;0.50;0.50;;;;;;;;;;5069745;28;20195;-80
2023/04/30 00:45:32;;;;;;;0.57;0.57;;;;;;;;;;5074339;28;20171;-79
2023/04/30 00:47:58;;;;;;;0.50;0.50;;;;;;;;;;5073911;28;20167;-79
2023/04/30 00:50:24;;;;;;;0.60;0.60;;;;;;;;;;5073714;28;20211;-79
2023/04/30 00:52:50;;;;;;;0.60;0.60;;;;;;;;;;5072669;28;20239;-79
2023/04/30 00:55:16;;;;;;;0.53;0.53;;;;;;;;;;5074377;28;20221;-79
2023/04/30 00:57:42;;;;;;;0.70;0.70;;;;;;;;;;5071564;28;20183;-80
2023/04/30 01:00:09;;;;;;;0.50;0.50;;;;;;;;;;5071235;28;20252;-80
2023/04/30 01:02:36;;;;;;;0.60;0.60;;;;;;;;;;5070204;28;20175;-79
2023/04/30 01:05:02;;;;;;;0.60;0.60;;;;;;;;;;5070532;28;20195;-80
2023/04/30 01:07:29;;;;;;;0.60;0.60;;;;;;;;;;5070796;28;20201;-79
2023/04/30 01:09:55;;;;;;;0.47;0.47;;;;;;;;;;5063754;28;20210;-81
2023/04/30 01:12:25;;;;;;;0.50;0.50;;;;;;;;;;5059896;28;20262;-81
2023/04/30 01:14:51;;;;;;;0.50;0.50;;;;;;;;;;5059773;28;20206;-80
2023/04/30 01:17:23;;;;;;;0.60;0.60;;;;;;;;;;5059423;28;20176;-81
2023/04/30 01:19:49;;;;;;;0.60;0.60;;;;;;;;;;5060960;28;20179;-80
2023/04/30 01:22:27;;;;;;;0.70;0.70;;;;;;;;;;5058480;28;20186;-81
2023/04/30 01:24:54;;;;;;;0.60;0.60;;;;;;;;;;5058707;28;20266;-81
2023/04/30 01:27:32;;;;;;;0.57;0.57;;;;;;;;;;5058358;28;20550;-80
2023/04/30 01:29:59;;;;;;;0.40;0.40;;;;;;;;;;5058140;28;20210;-81
2023/04/30 01:32:25;;;;;;;0.60;0.60;;;;;;;;;;5058160;28;20673;-80
2023/04/30 01:34:51;;;;;;;0.60;0.60;;;;;;;;;;5057611;28;20191;-80
2023/04/30 01:37:35;;;;;;;0.63;0.63;;;;;;;;;;5058117;28;20274;-81
2023/04/30 01:40:01;;;;;;;0.67;0.67;;;;;;;;;;5057547;28;20229;-80
2023/04/30 01:42:36;;;;;;;0.60;0.60;;;;;;;;;;5057079;28;20194;-80
2023/04/30 01:45:14;;;;;;;0.60;0.60;;;;;;;;;;5058220;28;20191;-81
2023/04/30 01:47:57;;;;;;;0.57;0.57;;;;;;;;;;5057594;28;20586;-81
2023/04/30 01:50:22;;;;;;;0.57;0.57;;;;;;;;;;5056934;28;20240;-80
2023/04/30 01:52:48;;;;;;;0.70;0.70;;;;;;;;;;5057238;28;20178;-81
2023/04/30 01:55:20;;;;;;;0.50;0.50;;;;;;;;;;5056638;28;20206;-80
2023/04/30 01:57:55;;;;;;;0.50;0.50;;;;;;;;;;5057221;28;20576;-80
2023/04/30 02:00:21;;;;;;;0.60;0.60;;;;;;;;;;5057423;28;20295;-80
2023/04/30 02:02:47;;;;;;;0.50;0.50;;;;;;;;;;5056752;28;20202;-80
2023/04/30 02:05:13;;;;;;;0.50;0.50;;;;;;;;;;5057368;28;20238;-80
2023/04/30 02:07:40;;;;;;;0.50;0.50;;;;;;;;;;5057465;28;20185;-80
2023/04/30 02:10:07;;;;;;;0.60;0.60;;;;;;;;;;5056905;28;20225;-81
2023/04/30 02:12:33;;;;;;;0.57;0.57;;;;;;;;;;5056190;28;20783;-80
2023/04/30 02:14:59;;;;;;;0.50;0.50;;;;;;;;;;5055800;28;20225;-80
2023/04/30 02:17:25;;;;;;;0.60;0.60;;;;;;;;;;5056015;28;20273;-81
2023/04/30 02:19:51;;;;;;;0.60;0.60;;;;;;;;;;5056394;28;20198;-80
2023/04/30 02:22:17;;;;;;;0.50;0.50;;;;;;;;;;5056222;28;20228;-80
2023/04/30 02:24:43;;;;;;;0.50;0.50;;;;;;;;;;5056383;28;20586;-80
2023/04/30 02:27:09;;;;;;;0.60;0.60;;;;;;;;;;5056218;28;20657;-80
2023/04/30 02:29:35;;;;;;;0.60;0.60;;;;;;;;;;5057076;28;20210;-80
2023/04/30 02:32:01;;;;;;;0.60;0.60;;;;;;;;;;5057610;28;20305;-80
2023/04/30 02:34:27;;;;;;;0.57;0.57;;;;;;;;;;5054429;28;20214;-80
2023/04/30 02:36:53;;;;;;;0.50;0.50;;;;;;;;;;5055690;28;20206;-79
2023/04/30 02:39:19;;;;;;;0.50;0.50;;;;;;;;;;5055713;28;20167;-80
2023/04/30 02:41:45;;;;;;;0.50;0.50;;;;;;;;;;5056168;28;20175;-80
2023/04/30 02:44:11;;;;;;;0.60;0.60;;;;;;;;;;5055708;28;20203;-80
2023/04/30 02:46:37;;;;;;;0.53;0.53;;;;;;;;;;5056595;28;20171;-80
2023/04/30 02:49:03;;;;;;;0.50;0.50;;;;;;;;;;5057603;28;20203;-80
2023/04/30 02:51:30;;;;;;;0.50;0.50;;;;;;;;;;5059085;28;20598;-82
2023/04/30 02:53:56;;;;;;;0.60;0.60;;;;;;;;;;5058477;28;20670;-81
2023/04/30 02:56:22;;;;;;;0.50;0.50;;;;;;;;;;5058719;28;20182;-81
2023/04/30 02:58:48;;;;;;;0.60;0.60;;;;;;;;;;5057745;28;20273;-81
2023/04/30 03:01:14;;;;;;;0.53;0.53;;;;;;;;;;5058255;28;20206;-81
2023/04/30 03:03:40;;;;;;;0.53;0.53;;;;;;;;;;5058255;28;20670;-81
2023/04/30 03:06:06;;;;;;;0.50;0.50;;;;;;;;;;5056790;28;20210;-80
2023/04/30 03:08:32;;;;;;;0.60;0.60;;;;;;;;;;5055393;28;20183;-80
2023/04/30 03:10:58;;;;;;;0.60;0.60;;;;;;;;;;5055602;28;20215;-80
2023/04/30 03:13:27;;;;;;;0.57;0.57;;;;;;;;;;5054539;28;20689;-80
2023/04/30 03:15:59;;;;;;;0.60;0.60;;;;;;;;;;5057490;28;20190;-80
2023/04/30 03:18:25;;;;;;;0.50;0.50;;;;;;;;;;5059097;28;20521;-80
2023/04/30 03:20:51;;;;;;;0.50;0.50;;;;;;;;;;5059435;28;20179;-81
2023/04/30 03:23:17;;;;;;;0.60;0.60;;;;;;;;;;5057544;28;20180;-81
2023/04/30 03:25:43;;;;;;;0.67;0.67;;;;;;;;;;5059601;28;20702;-80
2023/04/30 03:28:09;;;;;;;0.60;0.60;;;;;;;;;;5061516;28;20175;-81
2023/04/30 03:30:35;;;;;;;0.50;0.50;;;;;;;;;;5059341;28;20306;-81
2023/04/30 03:33:01;;;;;;;0.50;0.50;;;;;;;;;;5058178;28;20183;-80
2023/04/30 03:35:27;;;;;;;0.50;0.50;;;;;;;;;;5058481;28;20206;-81
2023/04/30 03:37:53;;;;;;;0.60;0.60;;;;;;;;;;5058590;28;20185;-82
2023/04/30 03:40:19;;;;;;;0.63;0.63;;;;;;;;;;5058810;28;20647;-81
2023/04/30 03:42:45;;;;;;;0.70;0.70;;;;;;;;;;5058756;28;20191;-81
2023/04/30 03:45:11;;;;;;;0.50;0.50;;;;;;;;;;5060353;28;20200;-82
2023/04/30 03:47:37;;;;;;;0.50;0.50;;;;;;;;;;5060766;28;20182;-81
2023/04/30 03:50:03;;;;;;;0.60;0.60;;;;;;;;;;5059935;28;20222;-81
2023/04/30 03:52:30;;;;;;;0.50;0.50;;;;;;;;;;5058471;28;20682;-81
2023/04/30 03:54:56;;;;;;;0.67;0.67;;;;;;;;;;5058335;28;20225;-82
2023/04/30 03:57:22;;;;;;;0.50;0.50;;;;;;;;;;5058305;28;20206;-81
2023/04/30 03:59:49;;;;;;;0.60;0.60;;;;;;;;;;5057086;28;20186;-82
2023/04/30 04:02:15;;;;;;;0.57;0.57;;;;;;;;;;5039515;28;20194;-80
2023/04/30 04:04:41;;;;;;;0.67;0.67;;;;;;;;;;5056966;28;20199;-81
2023/04/30 04:07:08;;;;;;;0.57;0.57;;;;;;;;;;5057447;28;20179;-80
2023/04/30 04:09:34;;;;;;;0.67;0.67;;;;;;;;;;5056153;28;20788;-80
2023/04/30 04:12:01;;;;;;;0.60;0.60;;;;;;;;;;5055695;28;20221;-81
2023/04/30 04:14:27;;;;;;;0.50;0.50;;;;;;;;;;5055390;28;20249;-80
2023/04/30 04:16:53;;;;;;;0.60;0.60;;;;;;;;;;5056075;28;20936;-81
2023/04/30 04:19:19;;;;;;;0.57;0.57;;;;;;;;;;5057454;28;20167;-80
2023/04/30 04:21:45;;;;;;;0.70;0.70;;;;;;;;;;5057582;28;20186;-80
2023/04/30 04:24:11;;;;;;;0.53;0.53;;;;;;;;;;5056412;28;20195;-81
2023/04/30 04:26:37;;;;;;;0.60;0.60;;;;;;;;;;5056915;28;20183;-81
2023/04/30 04:29:03;;;;;;;0.60;0.60;;;;;;;;;;5056928;28;20190;-81
2023/04/30 04:31:33;;;;;;;0.60;0.60;;;;;;;;;;5057535;28;20179;-80
2023/04/30 04:33:59;;;;;;;0.60;0.60;;;;;;;;;;5057107;28;20234;-81
2023/04/30 04:36:29;;;;;;;0.60;0.60;;;;;;;;;;5056949;28;20175;-81
2023/04/30 04:38:56;;;;;;;0.50;0.50;;;;;;;;;;5056713;28;20175;-81
2023/04/30 04:41:23;;;;;;;0.67;0.67;;;;;;;;;;5060320;28;20187;-80
2023/04/30 04:43:49;;;;;;;0.50;0.50;;;;;;;;;;5066476;28;20219;-81
2023/04/30 04:46:16;;;;;;;0.70;0.70;;;;;;;;;;5061390;28;20172;-81
2023/04/30 04:48:42;;;;;;;0.60;0.60;;;;;;;;;;5059733;28;20179;-82
2023/04/30 04:51:09;;;;;;;0.77;0.77;;;;;;;;;;5058985;28;20649;-81
2023/04/30 04:53:35;;;;;;;0.60;0.60;;;;;;;;;;5058070;28;20222;-82
2023/04/30 04:56:01;;;;;;;0.60;0.60;;;;;;;;;;5058981;28;20650;-81
2023/04/30 04:58:27;;;;;;;0.60;0.60;;;;;;;;;;5059275;28;20199;-81
2023/04/30 05:00:53;;;;;;;0.60;0.60;;;;;;;;;;5058888;28;20565;-81
2023/04/30 05:03:19;;;;;;;0.50;0.50;;;;;;;;;;5058430;28;20175;-81
2023/04/30 05:05:45;;;;;;;0.60;0.60;;;;;;;;;;5057897;28;20197;-81
2023/04/30 05:08:12;;;;;;;0.60;0.60;;;;;;;;;;5057806;28;20180;-81
2023/04/30 05:10:38;;;;;;;0.60;0.60;;;;;;;;;;5058087;28;20723;-81
2023/04/30 05:13:04;;;;;;;0.53;0.53;;;;;;;;;;5056978;28;20202;-81
2023/04/30 05:15:30;;;;;;;0.50;0.50;;;;;;;;;;5058189;28;20187;-81
2023/04/30 05:17:56;;;;;;;0.60;0.60;;;;;;;;;;5057516;28;20179;-81
2023/04/30 05:20:22;;;;;;;0.50;0.50;;;;;;;;;;5057565;28;20182;-82
2023/04/30 05:22:48;;;;;;;0.50;0.50;;;;;;;;;;5057356;28;20199;-81
2023/04/30 05:25:14;;;;;;;0.50;0.50;;;;;;;;;;5057156;28;20203;-81
2023/04/30 05:27:40;;;;;;;0.60;0.60;;;;;;;;;;5057540;28;20182;-81
2023/04/30 05:30:08;;;;;;;0.60;0.60;;;;;;;;;;5057222;28;20249;-81
2023/04/30 05:32:34;;;;;;;0.63;0.63;;;;;;;;;;5057931;28;20182;-81
2023/04/30 05:35:00;;;;;;;0.50;0.50;;;;;;;;;;5057241;28;20255;-81
2023/04/30 05:37:26;;;;;;;0.60;0.60;;;;;;;;;;5057047;28;20194;-81
2023/04/30 05:39:52;;;;;;;0.60;0.60;;;;;;;;;;5056808;28;20573;-80
2023/04/30 05:42:19;;;;;;;0.50;0.50;;;;;;;;;;5056090;28;20187;-79
2023/04/30 05:44:45;;;;;;;0.60;0.60;;;;;;;;;;5056958;28;20272;-80
2023/04/30 05:47:11;;;;;;;0.60;0.60;;;;;;;;;;5057768;28;20556;-81
2023/04/30 05:49:37;;;;;;;0.60;0.60;;;;;;;;;;5055638;28;20260;-80
2023/04/30 05:52:03;;;;;;;0.50;0.50;;;;;;;;;;5056394;28;20187;-80
2023/04/30 05:54:29;;;;;;;0.50;0.50;;;;;;;;;;5055729;28;20203;-81
2023/04/30 05:56:56;;;;;;;0.53;0.53;;;;;;;;;;5070180;28;20175;-79
2023/04/30 05:59:22;;;;;;;0.50;0.50;;;;;;;;;;5072746;28;20186;-79
2023/04/30 06:01:48;;;;;;;0.43;0.43;;;;;;;;;;5071631;28;20191;-83
2023/04/30 06:04:14;;;;;;;0.40;0.40;;;;;;;;;;5073401;28;20210;-81
2023/04/30 06:06:40;;;;;;;0.60;0.60;;;;;;;;;;5071383;28;20166;-81
2023/04/30 06:09:05;;;;;;;0.40;0.40;;;;;;;;;;5071019;28;20179;-80
2023/04/30 06:11:32;;;;;;;0.40;0.40;;;;;;;;;;5065172;28;20225;-82
2023/04/30 06:13:59;;;;;;;0.43;0.43;;;;;;;;;;5057111;28;20674;-82
2023/04/30 06:16:25;;;;;;;0.47;0.47;;;;;;;;;;5057749;28;20195;-81
2023/04/30 06:18:51;;;;;;;0.50;0.50;;;;;;;;;;5056989;28;20186;-80
2023/04/30 06:21:17;;;;;;;0.70;0.70;;;;;;;;;;5055950;28;20171;-81
2023/04/30 06:23:43;;;;;;;0.40;0.40;;;;;;;;;;5055522;28;20222;-82
2023/04/30 06:26:09;;;;;;;0.50;0.50;;;;;;;;;;5056552;28;20171;-82
2023/04/30 06:28:35;;;;;;;0.40;0.40;;;;;;;;;;5056322;28;20650;-81
2023/04/30 06:31:01;;;;;;;0.60;0.60;;;;;;;;;;5053948;28;20211;-82
2023/04/30 06:33:27;;;;;;;0.60;0.60;;;;;;;;;;5053679;28;20249;-83
2023/04/30 06:35:54;;;;;;;0.47;0.47;;;;;;;;;;5054514;28;20262;-82
2023/04/30 06:38:20;;;;;;;0.40;0.40;;;;;;;;;;5054445;28;20588;-82
2023/04/30 06:40:46;;;;;;;0.40;0.40;;;;;;;;;;5056651;28;20251;-83
2023/04/30 06:43:12;;;;;;;0.60;0.60;;;;;;;;;;5056174;28;20191;-83
2023/04/30 06:45:39;;;;;;;0.50;0.50;;;;;;;;;;5056055;28;20167;-82
2023/04/30 06:48:05;;;;;;;0.50;0.50;;;;;;;;;;5179691;22;20274;-87
2023/04/30 06:50:31;;;;;;;0.50;0.50;;;;;;;;;;5096566;28;20645;-87
2023/04/30 06:52:57;;;;;;;0.40;0.40;;;;;;;;;;5094380;28;20170;-86
2023/04/30 06:55:23;;;;;;;0.50;0.50;;;;;;;;;;5096991;28;20194;-85
2023/04/30 06:57:49;;;;;;;0.57;0.57;;;;;;;;;;5095889;28;20181;-86
2023/04/30 07:00:16;;;;;;;0.50;0.50;;;;;;;;;;5097042;28;20177;-88
2023/04/30 07:02:42;;;;;;;0.40;0.40;;;;;;;;;;5099415;28;20264;-85
2023/04/30 07:05:10;;;;;;;0.50;0.50;;;;;;;;;;5099755;28;20254;-86
2023/04/30 07:07:36;;;;;;;0.50;0.50;;;;;;;;;;5098438;28;20173;-86
2023/04/30 07:10:02;;;;;;;0.40;0.40;;;;;;;;;;5098561;28;20702;-86
2023/04/30 07:12:28;;;;;;;0.50;0.50;;;;;;;;;;5098772;28;20689;-86
2023/04/30 07:14:54;;;;;;;0.40;0.40;;;;;;;;;;5099121;28;20220;-86
2023/04/30 07:17:20;;;;;;;0.40;0.40;;;;;;;;;;5099458;28;20694;-85
2023/04/30 07:19:46;;;;;;;0.50;0.50;;;;;;;;;;5099576;28;20180;-87
2023/04/30 07:22:12;;;;;;;0.50;0.50;;;;;;;;;;5099197;28;20197;-83
2023/04/30 07:24:38;;;;;;;0.50;0.50;;;;;;;;;;5098785;28;20204;-87
2023/04/30 07:27:06;;;;;;;0.50;0.50;;;;;;;;;;5099305;28;20645;-84
2023/04/30 07:29:32;;;;;;;0.50;0.50;;;;;;;;;;5099591;28;20232;-84
2023/04/30 07:31:58;;;;;;;0.50;0.50;;;;;;;;;;5099381;28;20182;-85
2023/04/30 07:34:25;;;;;;;0.50;0.50;;;;;;;;;;5098846;28;20212;-84
2023/04/30 07:36:51;;;;;;;0.30;0.30;;;;;;;;;;5099552;28;20173;-85
2023/04/30 07:39:17;;;;;;;0.40;0.40;;;;;;;;;;5099543;28;20181;-85
2023/04/30 07:41:43;;;;;;;0.40;0.40;;;;;;;;;;5099310;28;20204;-85
2023/04/30 07:44:10;;;;;;;0.40;0.40;;;;;;;;;;5100424;28;20197;-84
2023/04/30 07:46:36;;;;;;;0.40;0.40;;;;;;;;;;5100607;28;20192;-85
2023/04/30 07:49:02;;;;;;;0.30;0.30;;;;;;;;;;5100407;28;20257;-86
2023/04/30 07:51:29;;;;;;;0.33;0.33;;;;;;;;;;5099078;28;20182;-85
2023/04/30 07:53:55;;;;;;;0.40;0.40;;;;;;;;;;5099722;28;20201;-85
2023/04/30 07:56:21;;;;;;;0.30;0.30;;;;;;;;;;5100937;28;20241;-85
2023/04/30 07:58:47;;;;;;;0.30;0.30;;;;;;;;;;5099563;28;20201;-84
2023/04/30 08:01:13;;;;;;;0.40;0.40;;;;;;;;;;5100475;28;20189;-84
2023/04/30 08:03:39;;;;;;;0.47;0.47;;;;;;;;;;5101121;28;20198;-84
2023/04/30 08:06:05;;;;;;;0.33;0.33;;;;;;;;;;5102192;28;20326;-84
2023/04/30 08:08:31;;;;;;;0.40;0.40;;;;;;;;;;5102879;28;20189;-82
2023/04/30 08:10:57;;;;;;;0.40;0.40;;;;;;;;;;5108965;28;20300;-83
2023/04/30 08:13:23;;;;;;;0.40;0.40;;;;;;;;;;5110890;28;20193;-82
2023/04/30 08:15:49;;;;;;;0.30;0.30;;;;;;;;;;5107527;28;20174;-84
2023/04/30 08:18:15;;;;;;;0.40;0.40;;;;;;;;;;5101688;28;20220;-85
2023/04/30 08:20:41;;;;;;;0.33;0.33;;;;;;;;;;5100810;28;20207;-84
2023/04/30 08:23:07;;;;;;;0.40;0.40;;;;;;;;;;5101728;28;20624;-84
2023/04/30 08:25:34;;;;;;;0.50;0.50;;;;;;;;;;5099973;28;20231;-84
2023/04/30 08:28:00;;;;;;;0.60;0.60;;;;;;;;;;5101190;28;20177;-86
2023/04/30 08:30:26;;;;;;;0.40;0.40;;;;;;;;;;5100738;28;20588;-85
2023/04/30 08:32:53;;;;;;;0.50;0.50;;;;;;;;;;5099934;28;20186;-86
2023/04/30 08:35:19;;;;;;;0.50;0.50;;;;;;;;;;5099009;28;20201;-86
2023/04/30 08:37:45;;;;;;;0.50;0.50;;;;;;;;;;5098996;28;20176;-85
2023/04/30 08:40:12;;;;;;;0.50;0.50;;;;;;;;;;5097678;28;20268;-86
2023/04/30 08:42:42;;;;;;;0.50;0.50;;;;;;;;;;5096148;28;20264;-85
2023/04/30 08:45:10;;;;;;;0.47;0.47;;;;;;;;;;5097574;28;20604;-86
2023/04/30 08:47:37;;;;;;;0.50;0.50;;;;;;;;;;5097769;28;20216;-85
2023/04/30 08:50:04;;;;;;;0.40;0.40;;;;;;;;;;5120525;22;20230;-82
2023/04/30 08:52:31;;;;;;;0.40;0.40;;;;;;;;;;5077261;28;20634;-84
2023/04/30 08:54:58;;;;;;;0.40;0.40;;;;;;;;;;5078016;28;20237;-84
2023/04/30 08:57:25;;;;;;;0.47;0.47;;;;;;;;;;5077817;28;20175;-84
2023/04/30 08:59:51;;;;;;;0.40;0.40;;;;;;;;;;5077833;28;20273;-83
2023/04/30 09:02:16;;;;;;;0.40;0.40;;;;;;;;;;5078824;28;20228;-83
2023/04/30 09:04:43;;;;;;;0.50;0.50;;;;;;;;;;5077164;28;20194;-83
2023/04/30 09:07:10;;;;;;;0.40;0.40;;;;;;;;;;5077856;28;20711;-83
2023/04/30 09:09:39;;;;;;;0.50;0.50;;;;;;;;;;5078420;28;20206;-82
2023/04/30 09:12:17;;;;;;;0.50;0.50;;;;;;;;;;5078059;28;20167;-82
2023/04/30 09:14:58;;;;;;;0.50;0.50;;;;;;;;;;5078532;28;20214;-83
2023/04/30 09:17:25;;;;;;;0.57;0.57;;;;;;;;;;5078654;28;20258;-83
2023/04/30 09:19:51;;;;;;;0.40;0.40;;;;;;;;;;5078177;28;20183;-83
2023/04/30 09:22:21;;;;;;;0.60;0.60;;;;;;;;;;5078561;28;20174;-82
2023/04/30 09:24:48;;;;;;;0.43;0.43;;;;;;;;;;5077880;28;20229;-83
2023/04/30 09:27:18;;;;;;;0.40;0.40;;;;;;;;;;5077978;28;20255;-83
2023/04/30 09:29:45;;;;;;;0.40;0.40;;;;;;;;;;5078805;28;20210;-82
2023/04/30 09:32:11;;;;;;;0.50;0.50;;;;;;;;;;5077462;28;20190;-82
2023/04/30 09:34:37;;;;;;;0.40;0.40;;;;;;;;;;5077426;28;20202;-81
2023/04/30 09:37:03;;;;;;;0.50;0.50;;;;;;;;;;5078131;28;20191;-82
2023/04/30 09:39:29;;;;;;;0.50;0.50;;;;;;;;;;5079738;28;20182;-82
2023/04/30 09:42:08;;;;;;;0.40;0.40;;;;;;;;;;5073028;28;20183;-83
2023/04/30 09:44:38;;;;;;;0.40;0.40;;;;;;;;;;5059023;28;20202;-82
2023/04/30 09:47:04;;;;;;;0.60;0.60;;;;;;;;;;5071942;28;20174;-83
2023/04/30 09:49:30;;;;;;;0.50;0.50;;;;;;;;;;5068692;28;20720;-84
2023/04/30 09:51:57;;;;;;;0.60;0.60;;;;;;;;;;5075575;28;20198;-81
2023/04/30 09:54:28;;;;;;;0.50;0.50;;;;;;;;;;5069743;28;20202;-81
2023/04/30 09:56:56;;;;;;;0.50;0.50;;;;;;;;;;5071560;28;20178;-83
2023/04/30 09:59:24;;;;;;;0.40;0.40;;;;;;;;;;5076380;28;20253;-82
2023/04/30 10:01:51;;;;;;;0.60;0.60;;;;;;;;;;5070991;28;20179;-83
2023/04/30 10:04:18;;;;;;;0.50;0.50;;;;;;;;;;5069583;28;20286;-83
2023/04/30 10:06:45;;;;;;;0.60;0.60;;;;;;;;;;5066787;28;20198;-81
2023/04/30 10:09:14;;;;;;;0.60;0.60;;;;;;;;;;5063563;28;20262;-82
2023/04/30 10:11:42;;;;;;;0.43;0.43;;;;;;;;;;5072686;28;20626;-82
2023/04/30 10:14:12;;;;;;;0.30;0.30;;;;;;;;;;5059873;28;20187;-83
2023/04/30 10:16:56;;;;;;;0.60;0.60;;;;;;;;;;5067091;28;20179;-82
2023/04/30 10:19:23;;;;;;;0.40;0.40;;;;;;;;;;5072259;28;20718;-82
2023/04/30 10:21:49;;;;;;;0.50;0.50;;;;;;;;;;5060628;28;20266;-82
2023/04/30 10:24:18;;;;;;;0.50;0.50;;;;;;;;;;5070566;28;20325;-82
2023/04/30 10:26:44;;;;;;;0.50;0.50;;;;;;;;;;5067467;28;20261;-83
2023/04/30 10:29:12;;;;;;;0.43;0.43;;;;;;;;;;5063227;28;20646;-81
2023/04/30 10:31:39;;;;;;;0.50;0.50;;;;;;;;;;5073885;28;20329;-82
2023/04/30 10:34:05;;;;;;;0.50;0.50;;;;;;;;;;5062196;28;20213;-82
2023/04/30 10:36:40;;;;;;;0.40;0.40;;;;;;;;;;5078436;28;20182;-82
2023/04/30 10:39:06;;;;;;;0.40;0.40;;;;;;;;;;5088906;28;20182;-82
2023/04/30 10:41:32;;;;;;;0.50;0.50;;;;;;;;;;5082087;28;20238;-81
2023/04/30 10:44:01;;;;;;;0.30;0.30;;;;;;;;;;5093477;28;20182;-82
2023/04/30 10:46:27;;;;;;;0.40;0.40;;;;;;;;;;5086646;28;20163;-81
2023/04/30 10:48:54;;;;;;;0.50;0.50;;;;;;;;;;5086531;28;20206;-82
2023/04/30 10:51:20;;;;;;;0.47;0.47;;;;;;;;;;5068343;28;20570;-82
2023/04/30 10:53:49;;;;;;;0.50;0.50;;;;;;;;;;5062922;28;20269;-82
2023/04/30 10:56:28;;;;;;;0.40;0.40;;;;;;;;;;5072807;28;20176;-81
2023/04/30 10:58:58;;;;;;;0.50;0.50;;;;;;;;;;5068572;28;20634;-81
2023/04/30 11:01:24;;;;;;;0.40;0.40;;;;;;;;;;5062243;28;20270;-83
2023/04/30 11:04:09;;;;;;;0.47;0.47;;;;;;;;;;5075530;28;20229;-81
2023/04/30 11:06:53;;;;;;;0.40;0.40;;;;;;;;;;5077640;28;20178;-83
2023/04/30 11:09:19;;;;;;;0.40;0.40;;;;;;;;;;5062262;28;20181;-83
2023/04/30 11:11:46;;;;;;;0.40;0.40;;;;;;;;;;5074069;28;20182;-81
2023/04/30 11:14:12;;;;;;;0.40;0.40;;;;;;;;;;5062714;28;20198;-82
2023/04/30 11:16:38;;;;;;;0.53;0.53;;;;;;;;;;5067513;28;20237;-82
2023/04/30 11:19:11;;;;;;;0.40;0.40;;;;;;;;;;5070197;28;20939;-82
2023/04/30 11:21:40;;;;;;;0.40;0.40;;;;;;;;;;5060246;28;20839;-81
2023/04/30 11:24:07;;;;;;;0.40;0.40;;;;;;;;;;5071537;28;20553;-81
2023/04/30 11:26:51;;;;;;;0.40;0.40;;;;;;;;;;5056716;28;20183;-82
2023/04/30 11:29:18;;;;;;;0.50;0.50;;;;;;;;;;5071310;28;20178;-82
2023/04/30 11:31:44;;;;;;;0.40;0.40;;;;;;;;;;5060484;28;20179;-82
2023/04/30 11:34:11;;;;;;;0.50;0.50;;;;;;;;;;5071691;28;20736;-82
2023/04/30 11:36:38;;;;;;;0.40;0.40;;;;;;;;;;5066738;28;20175;-81
2023/04/30 11:39:06;;;;;;;0.40;0.40;;;;;;;;;;5064397;28;20225;-82
2023/04/30 11:41:40;;;;;;;0.50;0.50;;;;;;;;;;5074458;28;20175;-82
2023/04/30 11:44:21;;;;;;;0.40;0.40;;;;;;;;;;5061509;28;20236;-83
2023/04/30 11:46:48;;;;;;;0.47;0.47;;;;;;;;;;5066008;28;20179;-82
2023/04/30 11:49:14;;;;;;;0.40;0.40;;;;;;;;;;5071295;28;20210;-82
2023/04/30 11:51:40;;;;;;;0.43;0.43;;;;;;;;;;5058931;28;20201;-81
2023/04/30 11:54:08;;;;;;;0.40;0.40;;;;;;;;;;5062854;28;20195;-82
2023/04/30 11:56:37;;;;;;;0.50;0.50;;;;;;;;;;5069514;28;20663;-82
2023/04/30 11:59:09;;;;;;;0.50;0.50;;;;;;;;;;5069646;28;20174;-82
2023/04/30 12:01:35;;;;;;;0.50;0.50;;;;;;;;;;5060381;28;20241;-83
2023/04/30 12:04:05;;;;;;;0.40;0.40;;;;;;;;;;5065216;28;20195;-83
2023/04/30 12:06:31;;;;;;;0.50;0.50;;;;;;;;;;5057340;28;20175;-82
2023/04/30 12:09:02;;;;;;;0.43;0.43;;;;;;;;;;5054517;28;20175;-82
2023/04/30 12:11:29;;;;;;;0.40;0.40;;;;;;;;;;5055868;28;20187;-84
2023/04/30 12:14:02;;;;;;;0.40;0.40;;;;;;;;;;5056599;28;20195;-82
2023/04/30 12:16:38;;;;;;;0.43;0.43;;;;;;;;;;5057439;28;20179;-83
2023/04/30 12:19:04;;;;;;;0.50;0.50;;;;;;;;;;5057592;28;20596;-82
2023/04/30 12:21:30;;;;;;;0.40;0.40;;;;;;;;;;5058308;28;20270;-83
2023/04/30 12:23:56;;;;;;;0.40;0.40;;;;;;;;;;5057909;28;20286;-82
2023/04/30 12:26:22;;;;;;;0.30;0.30;;;;;;;;;;5056376;28;20642;-81
2023/04/30 12:28:48;;;;;;;0.40;0.40;;;;;;;;;;5058746;28;20175;-83
2023/04/30 12:31:16;;;;;;;0.50;0.50;;;;;;;;;;5058293;28;20211;-82
2023/04/30 12:33:42;;;;;;;0.40;0.40;;;;;;;;;;5057925;28;20564;-82
2023/04/30 12:36:12;;;;;;;0.40;0.40;;;;;;;;;;5058586;28;20183;-82
2023/04/30 12:38:42;;;;;;;0.40;0.40;;;;;;;;;;5058546;28;20175;-82
2023/04/30 12:41:16;;;;;;;0.40;0.40;;;;;;;;;;5059317;28;20182;-83
2023/04/30 12:43:42;;;;;;;0.40;0.40;;;;;;;;;;5057352;28;20202;-82
2023/04/30 12:46:08;;;;;;;0.50;0.50;;;;;;;;;;5056679;28;20175;-82
2023/04/30 12:48:44;;;;;;;0.40;0.40;;;;;;;;;;5057290;28;20190;-82
2023/04/30 12:51:10;;;;;;;0.50;0.50;;;;;;;;;;5057973;28;20636;-82
2023/04/30 12:53:44;;;;;;;0.30;0.30;;;;;;;;;;5056712;28;20191;-82
2023/04/30 12:56:14;;;;;;;0.40;0.40;;;;;;;;;;5058447;28;20253;-83
2023/04/30 12:58:41;;;;;;;0.40;0.40;;;;;;;;;;5058585;28;20171;-82
2023/04/30 13:01:14;;;;;;;0.40;0.40;;;;;;;;;;5058031;28;20186;-80
2023/04/30 13:03:40;;;;;;;0.40;0.40;;;;;;;;;;5058500;28;20203;-83
2023/04/30 13:06:08;;;;;;;0.40;0.40;;;;;;;;;;5057457;28;20206;-82
2023/04/30 13:08:34;;;;;;;0.40;0.40;;;;;;;;;;5057957;28;20183;-82
2023/04/30 13:11:00;;;;;;;0.40;0.40;;;;;;;;;;5057797;28;20222;-82
2023/04/30 13:13:26;;;;;;;0.40;0.40;;;;;;;;;;5056820;28;20670;-83
2023/04/30 13:15:52;;;;;;;0.50;0.50;;;;;;;;;;5056740;28;20186;-82
2023/04/30 13:18:18;;;;;;;0.40;0.40;;;;;;;;;;5058143;28;20194;-82
2023/04/30 13:20:44;;;;;;;0.50;0.50;;;;;;;;;;5056577;28;20187;-82
2023/04/30 13:23:10;;;;;;;0.50;0.50;;;;;;;;;;5056530;28;20183;-83
2023/04/30 13:25:37;;;;;;;0.50;0.50;;;;;;;;;;5058866;28;20198;-82
2023/04/30 13:28:03;;;;;;;0.40;0.40;;;;;;;;;;5056609;28;20176;-83
2023/04/30 13:30:29;;;;;;;0.40;0.40;;;;;;;;;;5057689;28;20237;-82
2023/04/30 13:32:55;;;;;;;0.40;0.40;;;;;;;;;;5057662;28;20175;-81
2023/04/30 13:35:20;;;;;;;0.40;0.40;;;;;;;;;;5057368;28;20199;-82
2023/04/30 13:37:48;;;;;;;0.40;0.40;;;;;;;;;;5058140;28;20171;-83
2023/04/30 13:40:14;;;;;;;0.50;0.50;;;;;;;;;;5056959;28;20270;-82
2023/04/30 13:42:41;;;;;;;0.50;0.50;;;;;;;;;;5056364;28;20183;-82
2023/04/30 13:45:08;;;;;;;0.50;0.50;;;;;;;;;;5056693;28;20217;-82
2023/04/30 13:47:34;;;;;;;0.50;0.50;;;;;;;;;;5057035;28;20182;-83
2023/04/30 13:50:00;;;;;;;0.40;0.40;;;;;;;;;;5056999;28;20218;-82
2023/04/30 13:52:26;;;;;;;0.47;0.47;;;;;;;;;;5056123;28;20193;-83
2023/04/30 13:54:52;;;;;;;0.40;0.40;;;;;;;;;;5056650;28;20258;-82
2023/04/30 13:57:18;;;;;;;0.50;0.50;;;;;;;;;;5056397;28;20555;-81
2023/04/30 13:59:44;;;;;;;0.57;0.57;;;;;;;;;;5056252;28;20265;-82
2023/04/30 14:02:10;;;;;;;0.40;0.40;;;;;;;;;;5056231;28;20649;-82
2023/04/30 14:04:37;;;;;;;0.50;0.50;;;;;;;;;;5055041;28;20202;-82
2023/04/30 14:07:03;;;;;;;0.40;0.40;;;;;;;;;;5054205;28;20221;-82
2023/04/30 14:09:29;;;;;;;0.50;0.50;;;;;;;;;;5055756;28;20226;-82
2023/04/30 14:11:57;;;;;;;0.40;0.40;;;;;;;;;;5055306;28;20171;-82
2023/04/30 14:14:23;;;;;;;0.50;0.50;;;;;;;;;;5054945;28;20198;-82
2023/04/30 14:16:49;;;;;;;0.50;0.50;;;;;;;;;;5056398;28;20837;-83
2023/04/30 14:19:15;;;;;;;0.60;0.60;;;;;;;;;;5056816;28;20195;-82
2023/04/30 14:21:41;;;;;;;0.60;0.60;;;;;;;;;;5055706;28;20232;-81
2023/04/30 14:24:10;;;;;;;0.50;0.50;;;;;;;;;;5056546;28;20187;-83
2023/04/30 14:26:36;;;;;;;0.50;0.50;;;;;;;;;;5056516;28;20199;-82
2023/04/30 14:29:02;;;;;;;0.50;0.50;;;;;;;;;;5056490;28;20245;-83
2023/04/30 14:31:28;;;;;;;0.40;0.40;;;;;;;;;;5056661;28;20222;-83
2023/04/30 14:33:54;;;;;;;0.53;0.53;;;;;;;;;;5055952;28;20230;-83
2023/04/30 14:36:20;;;;;;;0.40;0.40;;;;;;;;;;5056569;28;20189;-83
2023/04/30 14:38:46;;;;;;;0.50;0.50;;;;;;;;;;5056953;28;20179;-82
2023/04/30 14:41:12;;;;;;;0.50;0.50;;;;;;;;;;5056340;28;20236;-82
2023/04/30 14:43:39;;;;;;;0.40;0.40;;;;;;;;;;5054893;28;20203;-84